sensor_id;sensor_type;location;lat;lon;timestamp;P1;durP1;ratioP1;P2;durP2;ratioP2
25824;SDS011;13658;44.534;18.694;2023-10-19T00:00:34;65.53;;;39.65;;
25824;SDS011;13658;44.534;18.694;2023-10-19T00:03:04;67.60;;;40.58;;
25824;SDS011;13658;44.534;18.694;2023-10-19T00:05:31;62.50;;;40.72;;
25824;SDS011;13658;44.534;18.694;2023-10-19T00:08:01;62.67;;;40.20;;
25824;SDS011;13658;44.534;18.694;2023-10-19T00:10:39;65.03;;;41.05;;
25824;SDS011;13658;44.534;18.694;2023-10-19T00:13:08;64.60;;;41.20;;
25824;SDS011;13658;44.534;18.694;2023-10-19T00:15:37;63.38;;;39.17;;
25824;SDS011;13658;44.534;18.694;2023-10-19T00:18:27;61.63;;;39.47;;
25824;SDS011;13658;44.534;18.694;2023-10-19T00:20:57;60.20;;;38.08;;
25824;SDS011;13658;44.534;18.694;2023-10-19T00:23:42;58.70;;;38.28;;
25824;SDS011;13658;44.534;18.694;2023-10-19T00:26:07;55.58;;;36.75;;
25824;SDS011;13658;44.534;18.694;2023-10-19T00:28:34;55.72;;;37.08;;
25824;SDS011;13658;44.534;18.694;2023-10-19T00:31:01;56.08;;;36.65;;
25824;SDS011;13658;44.534;18.694;2023-10-19T00:33:33;60.75;;;38.92;;
25824;SDS011;13658;44.534;18.694;2023-10-19T00:36:08;60.08;;;39.42;;
25824;SDS011;13658;44.534;18.694;2023-10-19T00:38:38;59.72;;;39.17;;
25824;SDS011;13658;44.534;18.694;2023-10-19T00:41:13;69.45;;;44.22;;
25824;SDS011;13658;44.534;18.694;2023-10-19T00:43:42;76.85;;;49.38;;
25824;SDS011;13658;44.534;18.694;2023-10-19T00:46:09;66.43;;;41.65;;
25824;SDS011;13658;44.534;18.694;2023-10-19T00:48:45;54.03;;;36.88;;
25824;SDS011;13658;44.534;18.694;2023-10-19T00:51:22;57.03;;;36.15;;
25824;SDS011;13658;44.534;18.694;2023-10-19T00:53:58;53.30;;;35.08;;
25824;SDS011;13658;44.534;18.694;2023-10-19T00:56:34;61.38;;;36.38;;
25824;SDS011;13658;44.534;18.694;2023-10-19T00:59:03;58.00;;;36.75;;
25824;SDS011;13658;44.534;18.694;2023-10-19T01:01:46;54.97;;;36.58;;
25824;SDS011;13658;44.534;18.694;2023-10-19T01:04:15;57.15;;;37.97;;
25824;SDS011;13658;44.534;18.694;2023-10-19T01:06:48;54.22;;;36.15;;
25824;SDS011;13658;44.534;18.694;2023-10-19T01:09:27;58.10;;;37.58;;
25824;SDS011;13658;44.534;18.694;2023-10-19T01:11:53;58.33;;;38.47;;
25824;SDS011;13658;44.534;18.694;2023-10-19T01:14:20;57.53;;;37.75;;
25824;SDS011;13658;44.534;18.694;2023-10-19T01:16:53;59.75;;;38.33;;
25824;SDS011;13658;44.534;18.694;2023-10-19T01:19:23;56.08;;;35.67;;
25824;SDS011;13658;44.534;18.694;2023-10-19T01:21:49;55.25;;;35.53;;
25824;SDS011;13658;44.534;18.694;2023-10-19T01:27:07;55.90;;;36.20;;
25824;SDS011;13658;44.534;18.694;2023-10-19T01:29:35;56.78;;;36.65;;
25824;SDS011;13658;44.534;18.694;2023-10-19T01:32:04;57.33;;;37.78;;
25824;SDS011;13658;44.534;18.694;2023-10-19T01:34:33;52.80;;;34.80;;
25824;SDS011;13658;44.534;18.694;2023-10-19T01:37:00;55.05;;;35.33;;
25824;SDS011;13658;44.534;18.694;2023-10-19T01:39:30;53.47;;;35.10;;
25824;SDS011;13658;44.534;18.694;2023-10-19T01:41:57;54.00;;;35.90;;
25824;SDS011;13658;44.534;18.694;2023-10-19T01:44:24;53.28;;;34.60;;
25824;SDS011;13658;44.534;18.694;2023-10-19T01:46:51;55.13;;;36.38;;
25824;SDS011;13658;44.534;18.694;2023-10-19T01:49:17;62.72;;;39.10;;
25824;SDS011;13658;44.534;18.694;2023-10-19T01:51:52;64.97;;;40.55;;
25824;SDS011;13658;44.534;18.694;2023-10-19T01:54:19;60.75;;;39.30;;
25824;SDS011;13658;44.534;18.694;2023-10-19T01:56:53;63.47;;;39.13;;
25824;SDS011;13658;44.534;18.694;2023-10-19T01:59:25;55.58;;;35.70;;
25824;SDS011;13658;44.534;18.694;2023-10-19T02:01:54;55.60;;;36.63;;
25824;SDS011;13658;44.534;18.694;2023-10-19T02:04:21;53.70;;;34.20;;
25824;SDS011;13658;44.534;18.694;2023-10-19T02:06:47;46.60;;;32.08;;
25824;SDS011;13658;44.534;18.694;2023-10-19T02:09:15;47.20;;;32.13;;
25824;SDS011;13658;44.534;18.694;2023-10-19T02:11:49;50.65;;;32.83;;
25824;SDS011;13658;44.534;18.694;2023-10-19T02:14:18;50.42;;;33.22;;
25824;SDS011;13658;44.534;18.694;2023-10-19T02:16:49;46.20;;;29.80;;
25824;SDS011;13658;44.534;18.694;2023-10-19T02:19:22;44.80;;;30.38;;
25824;SDS011;13658;44.534;18.694;2023-10-19T02:21:50;45.22;;;30.75;;
25824;SDS011;13658;44.534;18.694;2023-10-19T02:24:24;45.58;;;31.25;;
25824;SDS011;13658;44.534;18.694;2023-10-19T02:26:52;45.65;;;29.85;;
25824;SDS011;13658;44.534;18.694;2023-10-19T02:29:20;44.22;;;30.40;;
25824;SDS011;13658;44.534;18.694;2023-10-19T02:31:51;49.05;;;31.25;;
25824;SDS011;13658;44.534;18.694;2023-10-19T02:34:18;45.70;;;30.58;;
25824;SDS011;13658;44.534;18.694;2023-10-19T02:36:44;48.63;;;31.98;;
25824;SDS011;13658;44.534;18.694;2023-10-19T02:39:12;43.05;;;29.98;;
25824;SDS011;13658;44.534;18.694;2023-10-19T02:41:46;44.30;;;30.05;;
25824;SDS011;13658;44.534;18.694;2023-10-19T02:44:14;46.60;;;29.85;;
25824;SDS011;13658;44.534;18.694;2023-10-19T02:46:47;45.63;;;30.67;;
25824;SDS011;13658;44.534;18.694;2023-10-19T02:49:16;45.50;;;31.05;;
25824;SDS011;13658;44.534;18.694;2023-10-19T02:51:47;44.65;;;29.63;;
25824;SDS011;13658;44.534;18.694;2023-10-19T02:54:15;43.83;;;29.52;;
25824;SDS011;13658;44.534;18.694;2023-10-19T02:56:46;41.28;;;28.40;;
25824;SDS011;13658;44.534;18.694;2023-10-19T02:59:15;38.78;;;25.48;;
25824;SDS011;13658;44.534;18.694;2023-10-19T03:01:42;43.33;;;28.20;;
25824;SDS011;13658;44.534;18.694;2023-10-19T03:04:11;44.63;;;29.45;;
25824;SDS011;13658;44.534;18.694;2023-10-19T03:06:37;42.63;;;29.48;;
25824;SDS011;13658;44.534;18.694;2023-10-19T03:09:06;43.03;;;29.45;;
25824;SDS011;13658;44.534;18.694;2023-10-19T03:14:24;39.10;;;26.63;;
25824;SDS011;13658;44.534;18.694;2023-10-19T03:16:51;37.95;;;25.75;;
25824;SDS011;13658;44.534;18.694;2023-10-19T03:19:20;37.97;;;25.83;;
25824;SDS011;13658;44.534;18.694;2023-10-19T03:21:46;41.97;;;26.98;;
25824;SDS011;13658;44.534;18.694;2023-10-19T03:24:16;41.15;;;28.15;;
25824;SDS011;13658;44.534;18.694;2023-10-19T03:27:07;45.15;;;29.52;;
25824;SDS011;13658;44.534;18.694;2023-10-19T03:29:38;48.30;;;33.72;;
25824;SDS011;13658;44.534;18.694;2023-10-19T03:32:05;45.05;;;30.45;;
25824;SDS011;13658;44.534;18.694;2023-10-19T03:34:31;45.85;;;30.17;;
25824;SDS011;13658;44.534;18.694;2023-10-19T03:36:58;44.17;;;31.10;;
25824;SDS011;13658;44.534;18.694;2023-10-19T03:39:37;43.80;;;29.45;;
25824;SDS011;13658;44.534;18.694;2023-10-19T03:42:04;46.92;;;32.42;;
25824;SDS011;13658;44.534;18.694;2023-10-19T03:44:33;46.60;;;30.30;;
25824;SDS011;13658;44.534;18.694;2023-10-19T03:47:05;47.33;;;32.10;;
25824;SDS011;13658;44.534;18.694;2023-10-19T03:49:37;46.03;;;30.90;;
25824;SDS011;13658;44.534;18.694;2023-10-19T03:52:04;42.25;;;29.70;;
25824;SDS011;13658;44.534;18.694;2023-10-19T03:54:33;46.53;;;31.48;;
25824;SDS011;13658;44.534;18.694;2023-10-19T03:57:08;43.33;;;30.08;;
25824;SDS011;13658;44.534;18.694;2023-10-19T03:59:45;44.72;;;30.48;;
25824;SDS011;13658;44.534;18.694;2023-10-19T04:02:15;44.22;;;29.80;;
25824;SDS011;13658;44.534;18.694;2023-10-19T04:04:45;40.33;;;28.67;;
25824;SDS011;13658;44.534;18.694;2023-10-19T04:07:13;43.00;;;27.73;;
25824;SDS011;13658;44.534;18.694;2023-10-19T04:09:52;39.88;;;26.45;;
25824;SDS011;13658;44.534;18.694;2023-10-19T04:12:26;42.72;;;28.70;;
25824;SDS011;13658;44.534;18.694;2023-10-19T04:15:01;43.40;;;27.85;;
25824;SDS011;13658;44.534;18.694;2023-10-19T04:17:37;41.55;;;27.88;;
25824;SDS011;13658;44.534;18.694;2023-10-19T04:20:08;43.22;;;28.58;;
25824;SDS011;13658;44.534;18.694;2023-10-19T04:22:52;45.90;;;29.10;;
25824;SDS011;13658;44.534;18.694;2023-10-19T04:25:22;41.80;;;29.08;;
25824;SDS011;13658;44.534;18.694;2023-10-19T04:27:51;42.42;;;30.80;;
25824;SDS011;13658;44.534;18.694;2023-10-19T04:30:17;43.30;;;29.45;;
25824;SDS011;13658;44.534;18.694;2023-10-19T04:32:52;43.90;;;30.05;;
25824;SDS011;13658;44.534;18.694;2023-10-19T04:35:20;49.80;;;31.40;;
25824;SDS011;13658;44.534;18.694;2023-10-19T04:37:53;48.72;;;31.38;;
25824;SDS011;13658;44.534;18.694;2023-10-19T04:40:19;44.45;;;29.27;;
25824;SDS011;13658;44.534;18.694;2023-10-19T04:42:46;47.22;;;30.10;;
25824;SDS011;13658;44.534;18.694;2023-10-19T04:45:13;50.17;;;30.60;;
25824;SDS011;13658;44.534;18.694;2023-10-19T04:47:39;54.13;;;31.05;;
25824;SDS011;13658;44.534;18.694;2023-10-19T04:50:05;48.80;;;31.55;;
25824;SDS011;13658;44.534;18.694;2023-10-19T04:52:32;50.75;;;31.40;;
25824;SDS011;13658;44.534;18.694;2023-10-19T04:54:59;43.03;;;30.35;;
25824;SDS011;13658;44.534;18.694;2023-10-19T04:57:26;43.35;;;30.95;;
25824;SDS011;13658;44.534;18.694;2023-10-19T04:59:52;54.70;;;32.83;;
25824;SDS011;13658;44.534;18.694;2023-10-19T05:02:18;54.03;;;34.25;;
25824;SDS011;13658;44.534;18.694;2023-10-19T05:04:44;55.53;;;32.22;;
25824;SDS011;13658;44.534;18.694;2023-10-19T05:07:13;62.00;;;37.53;;
25824;SDS011;13658;44.534;18.694;2023-10-19T05:09:43;52.90;;;33.20;;
25824;SDS011;13658;44.534;18.694;2023-10-19T05:12:10;51.42;;;32.65;;
25824;SDS011;13658;44.534;18.694;2023-10-19T05:14:36;53.45;;;32.33;;
25824;SDS011;13658;44.534;18.694;2023-10-19T05:17:06;52.45;;;32.42;;
25824;SDS011;13658;44.534;18.694;2023-10-19T05:19:39;53.53;;;32.72;;
25824;SDS011;13658;44.534;18.694;2023-10-19T05:22:05;56.80;;;33.90;;
25824;SDS011;13658;44.534;18.694;2023-10-19T05:24:33;54.15;;;33.40;;
25824;SDS011;13658;44.534;18.694;2023-10-19T05:27:00;64.30;;;39.63;;
25824;SDS011;13658;44.534;18.694;2023-10-19T05:29:25;65.38;;;38.05;;
25824;SDS011;13658;44.534;18.694;2023-10-19T05:31:52;62.22;;;37.42;;
25824;SDS011;13658;44.534;18.694;2023-10-19T05:34:24;45.58;;;28.88;;
25824;SDS011;13658;44.534;18.694;2023-10-19T05:36:54;49.88;;;31.08;;
25824;SDS011;13658;44.534;18.694;2023-10-19T05:39:23;53.55;;;32.00;;
25824;SDS011;13658;44.534;18.694;2023-10-19T05:41:56;68.22;;;39.80;;
25824;SDS011;13658;44.534;18.694;2023-10-19T05:44:26;58.35;;;35.08;;
25824;SDS011;13658;44.534;18.694;2023-10-19T05:46:55;59.92;;;33.50;;
25824;SDS011;13658;44.534;18.694;2023-10-19T05:49:26;53.42;;;33.20;;
25824;SDS011;13658;44.534;18.694;2023-10-19T05:51:53;52.67;;;34.70;;
25824;SDS011;13658;44.534;18.694;2023-10-19T05:54:19;55.70;;;35.38;;
25824;SDS011;13658;44.534;18.694;2023-10-19T05:56:48;55.42;;;33.55;;
25824;SDS011;13658;44.534;18.694;2023-10-19T05:59:15;40.45;;;26.27;;
25824;SDS011;13658;44.534;18.694;2023-10-19T06:01:41;40.22;;;26.30;;
25824;SDS011;13658;44.534;18.694;2023-10-19T06:04:07;38.13;;;26.02;;
25824;SDS011;13658;44.534;18.694;2023-10-19T06:06:33;41.17;;;30.30;;
25824;SDS011;13658;44.534;18.694;2023-10-19T06:08:59;46.70;;;33.17;;
25824;SDS011;13658;44.534;18.694;2023-10-19T06:11:28;44.33;;;32.30;;
25824;SDS011;13658;44.534;18.694;2023-10-19T06:13:57;38.35;;;26.42;;
25824;SDS011;13658;44.534;18.694;2023-10-19T06:16:24;34.97;;;24.10;;
25824;SDS011;13658;44.534;18.694;2023-10-19T06:18:50;37.45;;;25.95;;
25824;SDS011;13658;44.534;18.694;2023-10-19T06:21:17;36.08;;;24.33;;
25824;SDS011;13658;44.534;18.694;2023-10-19T06:23:44;28.65;;;22.13;;
25824;SDS011;13658;44.534;18.694;2023-10-19T06:26:11;31.75;;;23.27;;
25824;SDS011;13658;44.534;18.694;2023-10-19T06:28:38;32.70;;;24.77;;
25824;SDS011;13658;44.534;18.694;2023-10-19T06:31:05;34.20;;;24.70;;
25824;SDS011;13658;44.534;18.694;2023-10-19T06:33:32;34.80;;;24.10;;
25824;SDS011;13658;44.534;18.694;2023-10-19T06:36:01;28.77;;;20.05;;
25824;SDS011;13658;44.534;18.694;2023-10-19T06:38:30;35.08;;;24.13;;
25824;SDS011;13658;44.534;18.694;2023-10-19T06:40:57;32.85;;;23.50;;
25824;SDS011;13658;44.534;18.694;2023-10-19T06:43:23;32.15;;;22.52;;
25824;SDS011;13658;44.534;18.694;2023-10-19T06:45:54;35.30;;;27.05;;
25824;SDS011;13658;44.534;18.694;2023-10-19T06:48:21;32.97;;;22.52;;
25824;SDS011;13658;44.534;18.694;2023-10-19T06:50:46;27.58;;;20.85;;
25824;SDS011;13658;44.534;18.694;2023-10-19T06:53:13;28.92;;;22.58;;
25824;SDS011;13658;44.534;18.694;2023-10-19T06:55:50;35.38;;;23.27;;
25824;SDS011;13658;44.534;18.694;2023-10-19T06:58:16;34.60;;;23.15;;
25824;SDS011;13658;44.534;18.694;2023-10-19T07:00:45;32.05;;;22.73;;
25824;SDS011;13658;44.534;18.694;2023-10-19T07:03:21;36.10;;;22.88;;
25824;SDS011;13658;44.534;18.694;2023-10-19T07:05:48;33.38;;;22.77;;
25824;SDS011;13658;44.534;18.694;2023-10-19T07:08:14;39.00;;;22.58;;
25824;SDS011;13658;44.534;18.694;2023-10-19T07:10:40;38.33;;;24.10;;
25824;SDS011;13658;44.534;18.694;2023-10-19T07:13:08;33.08;;;23.75;;
25824;SDS011;13658;44.534;18.694;2023-10-19T07:15:34;33.92;;;21.00;;
25824;SDS011;13658;44.534;18.694;2023-10-19T07:17:59;35.67;;;21.88;;
25824;SDS011;13658;44.534;18.694;2023-10-19T07:20:25;32.35;;;21.20;;
25824;SDS011;13658;44.534;18.694;2023-10-19T07:22:57;30.25;;;20.10;;
25824;SDS011;13658;44.534;18.694;2023-10-19T07:25:28;32.35;;;22.75;;
25824;SDS011;13658;44.534;18.694;2023-10-19T07:27:54;25.25;;;18.90;;
25824;SDS011;13658;44.534;18.694;2023-10-19T07:30:20;28.23;;;18.88;;
25824;SDS011;13658;44.534;18.694;2023-10-19T07:32:50;28.45;;;18.08;;
25824;SDS011;13658;44.534;18.694;2023-10-19T07:35:20;26.55;;;18.80;;
25824;SDS011;13658;44.534;18.694;2023-10-19T07:37:47;34.90;;;22.60;;
25824;SDS011;13658;44.534;18.694;2023-10-19T07:40:15;28.35;;;19.42;;
25824;SDS011;13658;44.534;18.694;2023-10-19T07:42:43;26.52;;;19.13;;
25824;SDS011;13658;44.534;18.694;2023-10-19T07:45:09;27.80;;;19.35;;
25824;SDS011;13658;44.534;18.694;2023-10-19T07:47:38;24.98;;;17.67;;
25824;SDS011;13658;44.534;18.694;2023-10-19T07:50:08;64.55;;;44.50;;
25824;SDS011;13658;44.534;18.694;2023-10-19T07:52:44;46.97;;;32.28;;
25824;SDS011;13658;44.534;18.694;2023-10-19T07:55:13;60.58;;;38.47;;
25824;SDS011;13658;44.534;18.694;2023-10-19T07:57:39;59.08;;;37.72;;
25824;SDS011;13658;44.534;18.694;2023-10-19T08:00:09;30.33;;;19.55;;
25824;SDS011;13658;44.534;18.694;2023-10-19T08:02:36;28.83;;;19.50;;
25824;SDS011;13658;44.534;18.694;2023-10-19T08:05:03;30.40;;;22.08;;
25824;SDS011;13658;44.534;18.694;2023-10-19T08:07:32;26.60;;;19.88;;
25824;SDS011;13658;44.534;18.694;2023-10-19T08:13:18;34.58;;;22.33;;
25824;SDS011;13658;44.534;18.694;2023-10-19T08:16:02;23.50;;;16.20;;
25824;SDS011;13658;44.534;18.694;2023-10-19T08:18:28;20.80;;;14.63;;
25824;SDS011;13658;44.534;18.694;2023-10-19T08:20:58;19.02;;;12.38;;
25824;SDS011;13658;44.534;18.694;2023-10-19T08:23:24;19.38;;;14.80;;
25824;SDS011;13658;44.534;18.694;2023-10-19T08:25:55;17.70;;;12.00;;
25824;SDS011;13658;44.534;18.694;2023-10-19T08:28:21;19.13;;;14.65;;
25824;SDS011;13658;44.534;18.694;2023-10-19T08:30:54;18.15;;;11.68;;
25824;SDS011;13658;44.534;18.694;2023-10-19T08:36:18;17.50;;;10.57;;
25824;SDS011;13658;44.534;18.694;2023-10-19T08:38:48;23.25;;;16.85;;
25824;SDS011;13658;44.534;18.694;2023-10-19T08:41:14;22.90;;;16.25;;
25824;SDS011;13658;44.534;18.694;2023-10-19T08:43:40;18.42;;;13.48;;
25824;SDS011;13658;44.534;18.694;2023-10-19T08:46:07;23.85;;;13.82;;
25824;SDS011;13658;44.534;18.694;2023-10-19T08:48:36;11.75;;;8.02;;
25824;SDS011;13658;44.534;18.694;2023-10-19T08:51:03;13.60;;;10.25;;
25824;SDS011;13658;44.534;18.694;2023-10-19T08:53:36;19.90;;;11.23;;
25824;SDS011;13658;44.534;18.694;2023-10-19T08:56:06;9.15;;;5.40;;
25824;SDS011;13658;44.534;18.694;2023-10-19T08:58:36;22.35;;;13.45;;
25824;SDS011;13658;44.534;18.694;2023-10-19T09:01:02;9.20;;;6.53;;
25824;SDS011;13658;44.534;18.694;2023-10-19T09:03:35;12.25;;;7.60;;
25824;SDS011;13658;44.534;18.694;2023-10-19T09:06:03;42.92;;;31.92;;
25824;SDS011;13658;44.534;18.694;2023-10-19T09:08:39;31.00;;;24.13;;
25824;SDS011;13658;44.534;18.694;2023-10-19T09:11:09;30.02;;;23.00;;
25824;SDS011;13658;44.534;18.694;2023-10-19T09:13:48;39.45;;;29.30;;
25824;SDS011;13658;44.534;18.694;2023-10-19T09:16:16;32.40;;;22.92;;
25824;SDS011;13658;44.534;18.694;2023-10-19T09:18:47;18.42;;;14.63;;
25824;SDS011;13658;44.534;18.694;2023-10-19T09:21:16;17.15;;;11.90;;
25824;SDS011;13658;44.534;18.694;2023-10-19T09:23:53;22.42;;;17.67;;
25824;SDS011;13658;44.534;18.694;2023-10-19T09:26:25;27.05;;;18.52;;
25824;SDS011;13658;44.534;18.694;2023-10-19T09:28:52;20.63;;;16.38;;
25824;SDS011;13658;44.534;18.694;2023-10-19T09:31:19;8.75;;;4.30;;
25824;SDS011;13658;44.534;18.694;2023-10-19T09:33:47;10.35;;;6.93;;
25824;SDS011;13658;44.534;18.694;2023-10-19T09:36:14;10.07;;;5.30;;
25824;SDS011;13658;44.534;18.694;2023-10-19T09:38:47;10.98;;;6.38;;
25824;SDS011;13658;44.534;18.694;2023-10-19T09:41:15;7.78;;;5.40;;
25824;SDS011;13658;44.534;18.694;2023-10-19T09:43:44;9.32;;;6.35;;
25824;SDS011;13658;44.534;18.694;2023-10-19T09:46:21;7.95;;;5.85;;
25824;SDS011;13658;44.534;18.694;2023-10-19T09:48:49;9.98;;;5.38;;
25824;SDS011;13658;44.534;18.694;2023-10-19T09:51:16;7.60;;;4.88;;
25824;SDS011;13658;44.534;18.694;2023-10-19T09:53:47;8.43;;;4.97;;
25824;SDS011;13658;44.534;18.694;2023-10-19T09:56:24;7.82;;;4.63;;
25824;SDS011;13658;44.534;18.694;2023-10-19T09:58:57;8.13;;;5.10;;
25824;SDS011;13658;44.534;18.694;2023-10-19T10:02:02;12.50;;;8.23;;
25824;SDS011;13658;44.534;18.694;2023-10-19T10:04:32;8.07;;;6.20;;
25824;SDS011;13658;44.534;18.694;2023-10-19T10:07:00;16.75;;;13.07;;
25824;SDS011;13658;44.534;18.694;2023-10-19T10:09:29;12.05;;;7.72;;
25824;SDS011;13658;44.534;18.694;2023-10-19T10:11:55;10.85;;;8.13;;
25824;SDS011;13658;44.534;18.694;2023-10-19T10:14:24;44.50;;;30.90;;
25824;SDS011;13658;44.534;18.694;2023-10-19T10:17:01;28.13;;;20.05;;
25824;SDS011;13658;44.534;18.694;2023-10-19T10:19:28;9.38;;;4.95;;
25824;SDS011;13658;44.534;18.694;2023-10-19T10:22:10;9.20;;;6.93;;
25824;SDS011;13658;44.534;18.694;2023-10-19T10:24:46;5.38;;;3.40;;
25824;SDS011;13658;44.534;18.694;2023-10-19T10:27:13;10.13;;;3.90;;
25824;SDS011;13658;44.534;18.694;2023-10-19T10:29:57;6.05;;;3.75;;
25824;SDS011;13658;44.534;18.694;2023-10-19T10:32:43;6.32;;;3.40;;
25824;SDS011;13658;44.534;18.694;2023-10-19T10:35:09;6.95;;;3.28;;
25824;SDS011;13658;44.534;18.694;2023-10-19T10:37:55;6.93;;;3.50;;
25824;SDS011;13658;44.534;18.694;2023-10-19T10:40:22;6.40;;;4.30;;
25824;SDS011;13658;44.534;18.694;2023-10-19T10:42:48;7.70;;;4.88;;
25824;SDS011;13658;44.534;18.694;2023-10-19T10:45:20;5.88;;;4.43;;
25824;SDS011;13658;44.534;18.694;2023-10-19T10:47:49;6.95;;;3.55;;
25824;SDS011;13658;44.534;18.694;2023-10-19T10:50:18;9.55;;;4.93;;
25824;SDS011;13658;44.534;18.694;2023-10-19T10:52:45;7.70;;;4.20;;
25824;SDS011;13658;44.534;18.694;2023-10-19T10:55:13;9.00;;;5.90;;
25824;SDS011;13658;44.534;18.694;2023-10-19T10:57:40;6.07;;;3.80;;
25824;SDS011;13658;44.534;18.694;2023-10-19T11:00:08;11.07;;;6.97;;
25824;SDS011;13658;44.534;18.694;2023-10-19T11:02:41;12.52;;;8.75;;
25824;SDS011;13658;44.534;18.694;2023-10-19T11:05:10;9.80;;;5.88;;
25824;SDS011;13658;44.534;18.694;2023-10-19T11:08:25;6.95;;;4.18;;
25824;SDS011;13658;44.534;18.694;2023-10-19T11:10:38;8.52;;;4.50;;
25824;SDS011;13658;44.534;18.694;2023-10-19T11:13:08;10.02;;;5.10;;
25824;SDS011;13658;44.534;18.694;2023-10-19T11:15:39;6.28;;;4.50;;
25824;SDS011;13658;44.534;18.694;2023-10-19T11:18:29;7.53;;;4.25;;
25824;SDS011;13658;44.534;18.694;2023-10-19T11:20:55;12.20;;;5.45;;
25824;SDS011;13658;44.534;18.694;2023-10-19T11:23:40;11.38;;;4.22;;
25824;SDS011;13658;44.534;18.694;2023-10-19T11:26:21;8.77;;;5.00;;
25824;SDS011;13658;44.534;18.694;2023-10-19T11:29:01;8.52;;;3.95;;
25824;SDS011;13658;44.534;18.694;2023-10-19T11:31:35;8.10;;;4.20;;
25824;SDS011;13658;44.534;18.694;2023-10-19T11:34:03;10.82;;;4.82;;
25824;SDS011;13658;44.534;18.694;2023-10-19T11:36:29;10.93;;;3.58;;
25824;SDS011;13658;44.534;18.694;2023-10-19T11:38:56;9.07;;;4.07;;
25824;SDS011;13658;44.534;18.694;2023-10-19T11:41:23;6.40;;;3.60;;
25824;SDS011;13658;44.534;18.694;2023-10-19T11:43:49;6.38;;;3.25;;
25824;SDS011;13658;44.534;18.694;2023-10-19T11:46:16;7.85;;;4.88;;
25824;SDS011;13658;44.534;18.694;2023-10-19T11:48:48;8.90;;;3.65;;
25824;SDS011;13658;44.534;18.694;2023-10-19T11:51:14;8.10;;;2.60;;
25824;SDS011;13658;44.534;18.694;2023-10-19T11:53:41;5.75;;;3.40;;
25824;SDS011;13658;44.534;18.694;2023-10-19T11:56:08;6.93;;;2.63;;
25824;SDS011;13658;44.534;18.694;2023-10-19T11:58:37;8.85;;;2.50;;
25824;SDS011;13658;44.534;18.694;2023-10-19T12:01:05;7.43;;;3.38;;
25824;SDS011;13658;44.534;18.694;2023-10-19T12:03:41;11.38;;;6.07;;
25824;SDS011;13658;44.534;18.694;2023-10-19T12:06:11;15.85;;;6.25;;
25824;SDS011;13658;44.534;18.694;2023-10-19T12:08:38;6.70;;;3.65;;
25824;SDS011;13658;44.534;18.694;2023-10-19T12:11:05;9.50;;;3.75;;
25824;SDS011;13658;44.534;18.694;2023-10-19T12:13:42;7.07;;;3.50;;
25824;SDS011;13658;44.534;18.694;2023-10-19T12:16:12;8.40;;;4.03;;
25824;SDS011;13658;44.534;18.694;2023-10-19T12:18:40;9.20;;;3.83;;
25824;SDS011;13658;44.534;18.694;2023-10-19T12:21:07;10.13;;;6.15;;
25824;SDS011;13658;44.534;18.694;2023-10-19T12:23:40;10.23;;;6.07;;
25824;SDS011;13658;44.534;18.694;2023-10-19T12:26:08;7.90;;;3.47;;
25824;SDS011;13658;44.534;18.694;2023-10-19T12:28:38;11.80;;;5.03;;
25824;SDS011;13658;44.534;18.694;2023-10-19T12:31:04;10.63;;;4.85;;
25824;SDS011;13658;44.534;18.694;2023-10-19T12:33:36;6.07;;;3.38;;
25824;SDS011;13658;44.534;18.694;2023-10-19T12:36:04;13.32;;;4.00;;
25824;SDS011;13658;44.534;18.694;2023-10-19T12:38:49;14.63;;;5.55;;
25824;SDS011;13658;44.534;18.694;2023-10-19T12:41:16;10.40;;;5.53;;
25824;SDS011;13658;44.534;18.694;2023-10-19T12:43:43;10.27;;;4.20;;
25824;SDS011;13658;44.534;18.694;2023-10-19T12:46:10;13.15;;;5.25;;
25824;SDS011;13658;44.534;18.694;2023-10-19T12:48:38;11.23;;;5.18;;
25824;SDS011;13658;44.534;18.694;2023-10-19T12:51:04;10.38;;;4.45;;
25824;SDS011;13658;44.534;18.694;2023-10-19T12:53:37;12.02;;;3.78;;
25824;SDS011;13658;44.534;18.694;2023-10-19T12:56:06;11.68;;;4.68;;
25824;SDS011;13658;44.534;18.694;2023-10-19T12:58:34;13.27;;;3.95;;
25824;SDS011;13658;44.534;18.694;2023-10-19T13:01:00;10.35;;;4.93;;
25824;SDS011;13658;44.534;18.694;2023-10-19T13:03:26;9.63;;;3.08;;
25824;SDS011;13658;44.534;18.694;2023-10-19T13:05:56;11.20;;;3.83;;
25824;SDS011;13658;44.534;18.694;2023-10-19T13:08:23;11.35;;;4.30;;
25824;SDS011;13658;44.534;18.694;2023-10-19T13:10:52;13.02;;;5.93;;
25824;SDS011;13658;44.534;18.694;2023-10-19T13:13:19;14.77;;;5.00;;
25824;SDS011;13658;44.534;18.694;2023-10-19T13:15:49;16.35;;;5.18;;
25824;SDS011;13658;44.534;18.694;2023-10-19T13:18:15;18.85;;;9.45;;
25824;SDS011;13658;44.534;18.694;2023-10-19T13:20:53;16.85;;;5.95;;
25824;SDS011;13658;44.534;18.694;2023-10-19T13:23:19;13.00;;;5.50;;
25824;SDS011;13658;44.534;18.694;2023-10-19T13:25:49;11.70;;;5.35;;
25824;SDS011;13658;44.534;18.694;2023-10-19T13:28:19;8.63;;;4.65;;
25824;SDS011;13658;44.534;18.694;2023-10-19T13:30:48;10.07;;;4.32;;
25824;SDS011;13658;44.534;18.694;2023-10-19T13:33:21;34.22;;;15.32;;
25824;SDS011;13658;44.534;18.694;2023-10-19T13:35:49;9.50;;;3.95;;
25824;SDS011;13658;44.534;18.694;2023-10-19T13:38:16;8.82;;;3.72;;
25824;SDS011;13658;44.534;18.694;2023-10-19T13:40:45;8.40;;;4.15;;
25824;SDS011;13658;44.534;18.694;2023-10-19T13:43:11;8.32;;;3.15;;
25824;SDS011;13658;44.534;18.694;2023-10-19T13:45:43;11.65;;;5.82;;
25824;SDS011;13658;44.534;18.694;2023-10-19T13:48:11;11.90;;;4.30;;
25824;SDS011;13658;44.534;18.694;2023-10-19T13:50:43;10.40;;;5.70;;
25824;SDS011;13658;44.534;18.694;2023-10-19T13:53:14;15.52;;;5.60;;
25824;SDS011;13658;44.534;18.694;2023-10-19T13:55:41;8.43;;;3.13;;
25824;SDS011;13658;44.534;18.694;2023-10-19T13:58:08;9.52;;;4.13;;
25824;SDS011;13658;44.534;18.694;2023-10-19T14:00:34;12.88;;;5.72;;
25824;SDS011;13658;44.534;18.694;2023-10-19T14:03:06;12.02;;;4.35;;
25824;SDS011;13658;44.534;18.694;2023-10-19T14:05:41;14.75;;;5.75;;
25824;SDS011;13658;44.534;18.694;2023-10-19T14:08:13;12.20;;;5.65;;
25824;SDS011;13658;44.534;18.694;2023-10-19T14:10:40;15.68;;;6.20;;
25824;SDS011;13658;44.534;18.694;2023-10-19T14:13:07;13.70;;;7.18;;
25824;SDS011;13658;44.534;18.694;2023-10-19T14:15:34;18.55;;;6.97;;
25824;SDS011;13658;44.534;18.694;2023-10-19T14:18:00;14.10;;;6.50;;
25824;SDS011;13658;44.534;18.694;2023-10-19T14:20:28;12.73;;;5.82;;
25824;SDS011;13658;44.534;18.694;2023-10-19T14:22:55;12.48;;;4.20;;
25824;SDS011;13658;44.534;18.694;2023-10-19T14:25:21;8.40;;;3.97;;
25824;SDS011;13658;44.534;18.694;2023-10-19T14:27:49;13.50;;;5.53;;
25824;SDS011;13658;44.534;18.694;2023-10-19T14:30:23;9.98;;;3.90;;
25824;SDS011;13658;44.534;18.694;2023-10-19T14:32:51;11.00;;;3.95;;
25824;SDS011;13658;44.534;18.694;2023-10-19T14:35:18;13.77;;;5.25;;
25824;SDS011;13658;44.534;18.694;2023-10-19T14:37:46;12.88;;;6.50;;
25824;SDS011;13658;44.534;18.694;2023-10-19T14:40:19;18.73;;;8.98;;
25824;SDS011;13658;44.534;18.694;2023-10-19T14:42:50;13.13;;;7.50;;